createdAt,value
2023-04-28T00:00:41.661Z,5.90
2023-04-28T00:03:10.520Z,6.00
2023-04-28T00:05:38.757Z,5.90
2023-04-28T00:08:07.402Z,5.90
2023-04-28T00:10:35.765Z,5.80
2023-04-28T00:13:03.889Z,5.80
2023-04-28T00:15:37.500Z,5.80
2023-04-28T00:18:06.427Z,5.80
2023-04-28T00:20:35.381Z,5.80
2023-04-28T00:23:04.410Z,5.70
2023-04-28T00:25:32.588Z,5.70
2023-04-28T00:28:01.931Z,5.70
2023-04-28T00:30:31.788Z,5.70
2023-04-28T00:33:01.335Z,5.70
2023-04-28T00:35:31.418Z,5.70
2023-04-28T00:37:59.523Z,5.70
2023-04-28T00:40:35.403Z,5.70
2023-04-28T00:43:03.959Z,5.60
2023-04-28T00:45:36.488Z,5.60
2023-04-28T00:48:06.480Z,5.60
2023-04-28T00:50:35.396Z,5.50
2023-04-28T00:53:04.443Z,5.50
2023-04-28T00:55:34.376Z,5.50
2023-04-28T00:58:04.030Z,5.40
2023-04-28T01:00:37.414Z,5.40
2023-04-28T01:03:08.045Z,5.40
2023-04-28T01:05:40.394Z,5.30
2023-04-28T01:08:08.516Z,5.30
2023-04-28T01:10:36.905Z,5.30
2023-04-28T01:13:14.407Z,5.20
2023-04-28T01:15:44.912Z,5.20
2023-04-28T01:18:15.033Z,5.20
2023-04-28T01:20:43.838Z,5.10
2023-04-28T01:23:13.988Z,5.10
2023-04-28T01:25:44.724Z,5.10
2023-04-28T01:28:14.430Z,5.00
2023-04-28T01:30:42.875Z,5.00
2023-04-28T01:33:12.426Z,5.00
2023-04-28T01:35:41.461Z,4.90
2023-04-28T01:38:09.632Z,4.90
2023-04-28T01:40:38.437Z,4.90
2023-04-28T01:43:11.453Z,4.90
2023-04-28T01:45:40.481Z,4.90
2023-04-28T01:48:11.362Z,4.90
2023-04-28T01:50:40.025Z,4.90
2023-04-28T01:53:08.153Z,4.90
2023-04-28T01:55:37.463Z,4.90
2023-04-28T01:58:06.285Z,4.90
2023-04-28T02:00:36.056Z,4.90
2023-04-28T02:03:04.856Z,4.80
2023-04-28T02:05:36.324Z,4.80
2023-04-28T02:08:07.471Z,4.90
2023-04-28T02:10:35.582Z,4.90
2023-04-28T02:13:04.437Z,4.90
2023-04-28T02:15:33.456Z,4.90
2023-04-28T02:18:02.976Z,4.90
2023-04-28T02:20:34.475Z,4.90
2023-04-28T02:23:02.544Z,4.80
2023-04-28T02:25:31.454Z,4.60
2023-04-28T02:27:59.792Z,4.60
2023-04-28T02:30:27.896Z,4.70
2023-04-28T02:32:57.475Z,4.60
2023-04-28T02:35:29.445Z,4.70
2023-04-28T02:37:57.752Z,4.70
2023-04-28T02:40:25.799Z,4.60
2023-04-28T02:42:58.348Z,4.60
2023-04-28T02:45:30.447Z,4.60
2023-04-28T02:48:04.515Z,4.60
2023-04-28T02:50:34.459Z,4.60
2023-04-28T02:53:02.745Z,4.50
2023-04-28T02:55:32.456Z,4.50
2023-04-28T02:58:00.756Z,4.50
2023-04-28T03:00:29.017Z,4.50
2023-04-28T03:02:57.604Z,4.40
2023-04-28T03:05:26.555Z,4.40
2023-04-28T03:07:56.211Z,4.40
2023-04-28T03:10:26.071Z,4.40
2023-04-28T03:12:54.510Z,4.40
2023-04-28T03:15:22.678Z,4.30
2023-04-28T03:17:50.930Z,4.30
2023-04-28T03:20:20.402Z,4.30
2023-04-28T03:22:48.530Z,4.40
2023-04-28T03:25:18.429Z,4.30
2023-04-28T03:27:52.489Z,4.30
2023-04-28T03:30:20.789Z,4.30
2023-04-28T03:32:48.886Z,4.30
2023-04-28T03:35:18.362Z,4.20
2023-04-28T03:37:47.505Z,4.20
2023-04-28T03:40:18.178Z,4.30
2023-04-28T03:43:06.490Z,4.30
2023-04-28T03:45:43.440Z,4.30
2023-04-28T03:48:11.621Z,4.30
2023-04-28T03:50:41.003Z,4.30
2023-04-28T03:53:10.495Z,4.30
2023-04-28T03:55:40.720Z,4.40
2023-04-28T03:58:10.481Z,4.40
2023-04-28T04:00:42.137Z,4.40
2023-04-28T04:03:10.606Z,4.50
2023-04-28T04:05:42.598Z,4.60
2023-04-28T04:08:12.484Z,4.60
2023-04-28T04:10:41.957Z,4.60
2023-04-28T04:13:10.509Z,4.60
2023-04-28T04:15:38.618Z,4.70
2023-04-28T04:18:07.494Z,4.70
2023-04-28T04:20:57.328Z,4.80
2023-04-28T04:23:26.229Z,4.70
2023-04-28T04:25:56.473Z,4.80
2023-04-28T04:28:24.530Z,4.80
2023-04-28T04:30:54.495Z,4.90
2023-04-28T04:33:22.685Z,4.90
2023-04-28T04:35:52.361Z,4.90
2023-04-28T04:38:20.601Z,4.90
2023-04-28T04:40:49.912Z,4.70
2023-04-28T04:43:22.257Z,4.70
2023-04-28T04:45:51.945Z,4.70
2023-04-28T04:48:22.116Z,4.60
2023-04-28T04:50:50.391Z,4.70
2023-04-28T04:53:18.672Z,4.70
2023-04-28T04:55:47.870Z,4.90
2023-04-28T04:58:17.950Z,4.90
2023-04-28T05:01:14.067Z,4.90
2023-04-28T05:03:45.486Z,5.00
2023-04-28T05:06:13.805Z,5.00
2023-04-28T05:08:45.854Z,5.00
2023-04-28T05:11:14.079Z,4.90
2023-04-28T05:13:43.681Z,4.90
2023-04-28T05:16:16.063Z,5.10
2023-04-28T05:19:10.090Z,5.20
2023-04-28T05:21:38.288Z,5.30
2023-04-28T05:24:08.503Z,5.50
2023-04-28T05:26:37.590Z,5.50
2023-04-28T05:29:09.962Z,5.50
2023-04-28T05:31:44.052Z,5.60
2023-04-28T05:34:12.430Z,5.70
2023-04-28T05:36:40.769Z,5.80
2023-04-28T05:39:13.450Z,5.90
2023-04-28T05:41:42.840Z,6.00
2023-04-28T05:44:14.170Z,6.10
2023-04-28T05:46:43.838Z,6.20
2023-04-28T05:49:14.316Z,6.20
2023-04-28T05:51:42.535Z,6.30
2023-04-28T05:54:10.642Z,6.30
2023-04-28T05:56:44.293Z,6.40
2023-04-28T05:59:13.710Z,6.40
2023-04-28T06:01:48.027Z,6.50
2023-04-28T06:04:16.599Z,6.60
2023-04-28T06:06:48.334Z,6.70
2023-04-28T06:09:16.713Z,6.80
2023-04-28T06:11:44.991Z,7.00
2023-04-28T06:14:16.459Z,7.00
2023-04-28T06:16:46.236Z,7.10
2023-04-28T06:19:15.410Z,7.10
2023-04-28T06:21:43.567Z,7.10
2023-04-28T06:24:11.823Z,7.10
2023-04-28T06:26:43.893Z,7.10
2023-04-28T06:29:12.107Z,7.20
2023-04-28T06:31:40.466Z,7.30
2023-04-28T06:34:13.613Z,7.40
2023-04-28T06:36:41.837Z,7.60
2023-04-28T06:39:12.207Z,7.70
2023-04-28T06:41:41.207Z,7.70
2023-04-28T06:44:12.515Z,7.80
2023-04-28T06:46:40.895Z,7.90
2023-04-28T06:49:12.821Z,8.00
2023-04-28T06:51:41.012Z,8.10
2023-04-28T06:54:09.172Z,8.20
2023-04-28T06:56:37.292Z,8.20
2023-04-28T06:59:07.578Z,8.30
2023-04-28T07:01:36.082Z,8.30
2023-04-28T07:04:08.370Z,8.30
2023-04-28T07:06:38.004Z,8.20
2023-04-28T07:09:08.373Z,8.30
2023-04-28T07:11:36.482Z,8.30
2023-04-28T07:14:05.549Z,8.50
2023-04-28T07:16:36.033Z,8.70
2023-04-28T07:19:04.294Z,8.80
2023-04-28T07:21:34.509Z,8.80
2023-04-28T07:24:04.250Z,8.90
2023-04-28T07:26:34.524Z,8.90
2023-04-28T07:29:02.799Z,9.00
2023-04-28T07:31:31.036Z,9.20
2023-04-28T07:33:59.308Z,9.40
2023-04-28T07:36:27.609Z,9.40
2023-04-28T07:38:55.828Z,9.40
2023-04-28T07:41:27.858Z,9.50
2023-04-28T07:43:58.928Z,9.50
2023-04-28T07:46:28.720Z,9.70
2023-04-28T07:49:00.551Z,9.80
2023-04-28T07:51:28.928Z,9.80
2023-04-28T07:53:57.107Z,9.80
2023-04-28T07:56:30.553Z,9.70
2023-04-28T07:59:00.546Z,9.70
2023-04-28T08:01:28.794Z,9.60
2023-04-28T08:03:57.792Z,9.60
2023-04-28T08:06:27.944Z,9.80
2023-04-28T08:08:56.929Z,9.90
2023-04-28T08:11:25.046Z,10.00
2023-04-28T08:14:01.297Z,10.10
2023-04-28T08:16:30.599Z,10.40
2023-04-28T08:18:59.243Z,10.70
2023-04-28T08:21:27.746Z,10.80
2023-04-28T08:23:58.698Z,11.00
2023-04-28T08:26:27.183Z,11.20
2023-04-28T08:28:56.747Z,11.10
2023-04-28T08:31:24.974Z,11.10
2023-04-28T08:33:54.412Z,10.50
2023-04-28T08:36:25.601Z,10.40
2023-04-28T08:38:54.741Z,10.30
2023-04-28T08:41:23.374Z,10.30
2023-04-28T08:43:52.293Z,10.50
2023-04-28T08:46:23.236Z,10.70
2023-04-28T08:49:00.733Z,10.90
2023-04-28T08:51:34.853Z,11.00
2023-04-28T08:54:18.845Z,11.00
2023-04-28T08:56:53.587Z,10.90
2023-04-28T08:59:26.638Z,11.10
2023-04-28T09:01:57.129Z,11.30
2023-04-28T09:04:25.803Z,11.50
2023-04-28T09:06:55.686Z,11.80
2023-04-28T09:09:25.376Z,11.90
2023-04-28T09:11:55.575Z,12.00
2023-04-28T09:14:24.566Z,12.00
2023-04-28T09:16:53.683Z,12.00
2023-04-28T09:19:24.090Z,11.90
2023-04-28T09:21:54.612Z,11.90
2023-04-28T09:24:31.526Z,11.80
2023-04-28T09:27:00.170Z,11.70
2023-04-28T09:29:28.294Z,11.70
2023-04-28T09:32:16.362Z,11.60
2023-04-28T09:34:47.038Z,11.70
2023-04-28T09:37:20.177Z,11.80
2023-04-28T09:39:52.335Z,11.80
2023-04-28T09:42:34.701Z,11.90
2023-04-28T09:45:04.705Z,11.80
2023-04-28T09:47:35.743Z,11.80
2023-04-28T09:50:12.644Z,11.50
2023-04-28T09:52:43.932Z,11.10
2023-04-28T09:55:15.297Z,11.20
2023-04-28T09:57:49.851Z,11.30
2023-04-28T10:00:20.218Z,11.50
2023-04-28T10:02:51.838Z,11.50
2023-04-28T10:05:24.804Z,11.50
2023-04-28T10:07:55.663Z,10.90
2023-04-28T10:10:25.223Z,10.90
2023-04-28T10:12:53.484Z,11.10
2023-04-28T10:15:22.302Z,11.30
2023-04-28T10:17:52.267Z,11.50
2023-04-28T10:20:23.657Z,11.90
2023-04-28T10:23:03.164Z,11.70
2023-04-28T10:25:34.174Z,11.70
2023-04-28T10:28:05.931Z,11.90
2023-04-28T10:30:35.223Z,12.10
2023-04-28T10:33:26.992Z,12.30
2023-04-28T10:35:56.819Z,12.40
2023-04-28T10:38:31.290Z,12.30
2023-04-28T10:41:02.593Z,11.90
2023-04-28T10:43:40.703Z,11.80
2023-04-28T10:46:10.313Z,11.70
2023-04-28T10:48:56.323Z,11.80
2023-04-28T10:51:33.554Z,12.00
2023-04-28T10:54:20.398Z,12.10
2023-04-28T10:57:21.268Z,12.30
2023-04-28T10:59:51.373Z,12.60
2023-04-28T11:02:44.384Z,12.80
2023-04-28T11:05:25.269Z,12.90
2023-04-28T11:08:30.925Z,12.80
2023-04-28T11:11:23.900Z,13.00
2023-04-28T11:13:52.546Z,12.70
2023-04-28T11:16:22.860Z,12.90
2023-04-28T11:19:06.251Z,12.90
2023-04-28T11:21:34.951Z,13.00
2023-04-28T11:24:10.736Z,13.30
2023-04-28T11:26:41.250Z,13.70
2023-04-28T11:29:09.666Z,13.80
2023-04-28T11:31:38.344Z,13.10
2023-04-28T11:34:11.938Z,13.30
2023-04-28T11:36:41.680Z,13.50
2023-04-28T11:39:11.490Z,13.10
2023-04-28T11:41:42.924Z,13.10
2023-04-28T11:44:37.093Z,12.60
2023-04-28T11:47:06.589Z,12.90
2023-04-28T11:49:47.725Z,13.10
2023-04-28T11:52:21.547Z,13.20
2023-04-28T11:54:55.380Z,13.40
2023-04-28T11:57:25.512Z,13.60
2023-04-28T12:03:11.433Z,14.30
2023-04-28T12:05:46.718Z,14.60
2023-04-28T12:08:15.789Z,14.90
2023-04-28T12:10:44.031Z,14.60
2023-04-28T12:13:18.382Z,14.20
2023-04-28T12:15:49.466Z,13.90
2023-04-28T12:18:19.506Z,13.60
2023-04-28T12:20:49.910Z,13.10
2023-04-28T12:23:31.701Z,13.00
2023-04-28T12:26:00.834Z,13.10
2023-04-28T12:28:39.806Z,13.70
2023-04-28T12:31:09.890Z,14.30
2023-04-28T12:33:41.389Z,14.70
2023-04-28T12:36:09.473Z,14.90
2023-04-28T12:38:49.125Z,15.40
2023-04-28T12:41:17.241Z,15.90
2023-04-28T12:43:46.691Z,16.40
2023-04-28T12:46:16.723Z,16.60
2023-04-28T12:48:50.267Z,17.00
2023-04-28T12:51:18.382Z,16.90
2023-04-28T12:53:46.485Z,16.70
2023-04-28T12:56:15.653Z,16.90
2023-04-28T12:58:43.972Z,17.10
2023-04-28T13:01:13.513Z,17.20
2023-04-28T13:03:42.800Z,17.20
2023-04-28T13:06:11.629Z,17.00
2023-04-28T13:08:39.921Z,16.60
2023-04-28T13:11:19.754Z,16.50
2023-04-28T13:13:52.896Z,16.70
2023-04-28T13:16:25.769Z,16.70
2023-04-28T13:18:54.297Z,16.80
2023-04-28T13:21:23.713Z,16.90
2023-04-28T13:23:51.930Z,16.80
2023-04-28T13:26:20.751Z,17.10
2023-04-28T13:28:49.094Z,17.00
2023-04-28T13:31:18.094Z,17.40
2023-04-28T13:33:50.975Z,17.90
2023-04-28T13:36:19.089Z,18.40
2023-04-28T13:38:49.018Z,19.10
2023-04-28T13:41:17.738Z,19.40
2023-04-28T13:43:46.027Z,18.60
2023-04-28T13:46:14.802Z,18.70
2023-04-28T13:48:42.952Z,19.00
2023-04-28T13:51:12.464Z,19.70
2023-04-28T13:53:40.771Z,19.60
2023-04-28T13:56:09.240Z,17.30
2023-04-28T13:58:41.762Z,16.90
2023-04-28T14:01:09.927Z,17.20
2023-04-28T14:03:38.241Z,17.90
2023-04-28T14:06:08.753Z,17.60
2023-04-28T14:08:42.355Z,17.30
2023-04-28T14:11:13.359Z,17.10
2023-04-28T14:13:42.769Z,17.80
2023-04-28T14:16:10.843Z,16.20
2023-04-28T14:18:39.194Z,15.40
2023-04-28T14:21:08.522Z,15.70
2023-04-28T14:23:38.641Z,16.20
2023-04-28T14:26:08.818Z,17.00
2023-04-28T14:28:37.800Z,17.50
2023-04-28T14:31:08.818Z,18.60
2023-04-28T14:33:38.223Z,19.60
2023-04-28T14:36:06.681Z,20.10
2023-04-28T14:38:34.819Z,20.20
2023-04-28T14:41:29.411Z,20.50
2023-04-28T14:43:57.863Z,21.10
2023-04-28T14:46:27.680Z,21.60
2023-04-28T14:48:55.945Z,22.00
2023-04-28T14:51:24.275Z,22.60
2023-04-28T14:53:52.588Z,22.50
2023-04-28T14:56:21.120Z,22.40
2023-04-28T14:58:50.769Z,22.30
2023-04-28T15:01:19.552Z,22.20
2023-04-28T15:03:47.876Z,21.80
2023-04-28T15:06:17.551Z,21.40
2023-04-28T15:08:45.638Z,21.00
2023-04-28T15:11:17.412Z,20.40
2023-04-28T15:13:45.495Z,20.50
2023-04-28T15:16:18.544Z,20.10
2023-04-28T15:18:47.080Z,20.80
2023-04-28T15:21:15.209Z,21.20
2023-04-28T15:23:45.288Z,21.70
2023-04-28T15:26:13.499Z,21.90
2023-04-28T15:28:41.554Z,22.20
2023-04-28T15:31:14.696Z,22.20
2023-04-28T15:33:42.986Z,22.60
2023-04-28T15:36:11.265Z,23.10
2023-04-28T15:38:40.818Z,22.70
2023-04-28T15:41:09.220Z,23.50
2023-04-28T15:43:37.546Z,24.20
2023-04-28T15:46:08.845Z,23.80
2023-04-28T15:48:39.727Z,23.10
2023-04-28T15:51:09.180Z,23.60
2023-04-28T15:53:37.698Z,22.70
2023-04-28T15:56:05.867Z,22.70
2023-04-28T15:58:33.990Z,22.80
2023-04-28T16:01:03.224Z,22.20
2023-04-28T16:03:31.610Z,21.20
2023-04-28T16:06:02.215Z,21.60
2023-04-28T16:08:30.482Z,20.40
2023-04-28T16:10:58.630Z,18.90
2023-04-28T16:13:27.074Z,18.50
2023-04-28T16:15:57.615Z,18.90
2023-04-28T16:18:25.746Z,19.50
2023-04-28T16:20:57.579Z,19.80
2023-04-28T16:23:27.094Z,19.90
2023-04-28T16:25:55.204Z,19.90
2023-04-28T16:28:25.260Z,20.00
2023-04-28T16:30:53.380Z,20.40
2023-04-28T16:33:21.596Z,20.50
2023-04-28T16:35:55.870Z,20.40
2023-04-28T16:38:23.982Z,20.00
2023-04-28T16:40:54.599Z,19.70
2023-04-28T16:43:22.689Z,19.40
2023-04-28T16:45:53.189Z,19.20
2023-04-28T16:48:21.598Z,18.90
2023-04-28T16:50:49.715Z,18.50
2023-04-28T16:53:21.715Z,17.90
2023-04-28T16:55:50.008Z,17.70
2023-04-28T16:58:19.471Z,17.60
2023-04-28T17:00:47.564Z,17.20
2023-04-28T17:03:16.024Z,17.10
2023-04-28T17:05:44.233Z,16.80
2023-04-28T17:08:12.362Z,16.70
2023-04-28T17:10:40.681Z,16.40
2023-04-28T17:13:10.156Z,16.20
2023-04-28T17:15:42.328Z,16.00
2023-04-28T17:18:10.510Z,15.80
2023-04-28T17:20:41.327Z,15.80
2023-04-28T17:23:09.445Z,15.60
2023-04-28T17:25:39.700Z,15.50
2023-04-28T17:28:07.925Z,15.40
2023-04-28T17:30:36.808Z,15.30
2023-04-28T17:33:06.978Z,15.20
2023-04-28T17:35:35.618Z,15.00
2023-04-28T17:38:03.715Z,15.00
2023-04-28T17:40:32.911Z,14.80
2023-04-28T17:43:01.004Z,14.80
2023-04-28T17:45:29.808Z,14.60
2023-04-28T17:48:00.715Z,14.50
2023-04-28T17:50:30.299Z,14.30
2023-04-28T17:52:58.394Z,14.20
2023-04-28T17:55:26.599Z,14.10
2023-04-28T17:57:55.014Z,13.90
2023-04-28T18:00:23.331Z,13.80
2023-04-28T18:02:56.006Z,13.70
2023-04-28T18:05:24.552Z,13.60
2023-04-28T18:07:54.077Z,13.50
2023-04-28T18:10:22.569Z,13.40
2023-04-28T18:12:53.016Z,13.30
2023-04-28T18:15:21.966Z,13.20
2023-04-28T18:17:50.234Z,13.10
2023-04-28T18:20:18.768Z,13.00
2023-04-28T18:22:49.112Z,13.00
2023-04-28T18:25:22.383Z,12.90
2023-04-28T18:27:50.584Z,12.80
2023-04-28T18:30:18.736Z,12.70
2023-04-28T18:32:50.318Z,12.70
2023-04-28T18:35:19.150Z,12.70
2023-04-28T18:37:47.274Z,12.60
2023-04-28T18:40:18.534Z,12.60
2023-04-28T18:42:47.198Z,12.50
2023-04-28T18:45:18.588Z,12.50
2023-04-28T18:47:46.798Z,12.40
2023-04-28T18:50:17.521Z,12.30
2023-04-28T18:52:46.874Z,12.30
2023-04-28T18:55:16.164Z,12.30
2023-04-28T18:57:45.689Z,12.20
2023-04-28T19:00:14.136Z,12.20
2023-04-28T19:02:42.359Z,12.20
2023-04-28T19:05:12.782Z,12.10
2023-04-28T19:07:42.098Z,12.10
2023-04-28T19:10:14.379Z,12.00
2023-04-28T19:12:42.556Z,12.00
2023-04-28T19:15:12.100Z,11.90
2023-04-28T19:17:41.051Z,11.90
2023-04-28T19:20:10.291Z,11.90
2023-04-28T19:22:41.015Z,11.80
2023-04-28T19:25:09.783Z,11.70
2023-04-28T19:27:41.425Z,11.70
2023-04-28T19:30:13.848Z,11.70
2023-04-28T19:32:42.637Z,11.70
2023-04-28T19:35:12.229Z,11.60
2023-04-28T19:37:40.459Z,11.70
2023-04-28T19:40:12.612Z,11.60
2023-04-28T19:42:40.765Z,11.60
2023-04-28T19:45:10.973Z,11.50
2023-04-28T19:47:40.604Z,11.60
2023-04-28T19:50:09.996Z,11.50
2023-04-28T19:52:38.112Z,11.50
2023-04-28T19:55:07.308Z,11.50
2023-04-28T19:57:37.354Z,11.50
2023-04-28T20:00:08.176Z,11.40
2023-04-28T20:02:36.477Z,11.30
2023-04-28T20:05:07.965Z,11.40
2023-04-28T20:07:38.997Z,11.40
2023-04-28T20:10:08.051Z,11.30
2023-04-28T20:12:36.341Z,11.30
2023-04-28T20:15:04.795Z,11.20
2023-04-28T20:17:33.143Z,11.20
2023-04-28T20:20:02.867Z,11.10
2023-04-28T20:22:32.693Z,11.10
2023-04-28T20:25:06.010Z,11.10
2023-04-28T20:27:35.061Z,10.90
2023-04-28T20:30:04.007Z,10.90
2023-04-28T20:32:33.016Z,10.90
2023-04-28T20:35:02.795Z,10.90
2023-04-28T20:37:32.299Z,10.90
2023-04-28T20:40:00.418Z,10.80
2023-04-28T20:42:28.755Z,10.80
2023-04-28T20:44:58.975Z,10.70
2023-04-28T20:47:28.058Z,10.70
2023-04-28T20:49:56.214Z,10.70
2023-04-28T20:52:26.026Z,10.70
2023-04-28T20:54:55.575Z,10.60
2023-04-28T20:57:24.383Z,10.70
2023-04-28T20:59:54.196Z,10.60
2023-04-28T21:02:22.431Z,10.60
2023-04-28T21:04:51.004Z,10.70
2023-04-28T21:07:19.146Z,10.70
2023-04-28T21:09:48.863Z,10.70
2023-04-28T21:12:19.008Z,10.70
2023-04-28T21:14:47.203Z,10.80
2023-04-28T21:17:15.324Z,10.80
2023-04-28T21:19:44.019Z,10.80
2023-04-28T21:22:12.542Z,10.80
2023-04-28T21:24:42.002Z,10.80
2023-04-28T21:27:13.370Z,10.80
2023-04-28T21:29:43.037Z,10.70
2023-04-28T21:32:11.570Z,10.70
2023-04-28T21:34:39.791Z,10.70
2023-04-28T21:37:11.011Z,10.60
2023-04-28T21:39:39.089Z,10.70
2023-04-28T21:42:10.049Z,10.70
2023-04-28T21:44:38.521Z,10.70
2023-04-28T21:47:10.431Z,10.70
2023-04-28T21:49:38.566Z,10.70
2023-04-28T21:52:10.113Z,10.60
2023-04-28T21:54:38.212Z,10.60
2023-04-28T21:57:06.407Z,10.60
2023-04-28T21:59:38.526Z,10.50
2023-04-28T22:02:08.254Z,10.50
2023-04-28T22:04:37.390Z,10.50
2023-04-28T22:07:06.465Z,10.40
2023-04-28T22:09:35.044Z,10.40
2023-04-28T22:12:03.348Z,10.40
2023-04-28T22:17:06.088Z,10.40
2023-04-28T22:19:35.742Z,10.30
2023-04-28T22:22:03.820Z,10.30
2023-04-28T22:24:34.494Z,10.30
2023-04-28T22:27:03.267Z,10.30
2023-04-28T22:29:35.118Z,10.30
2023-04-28T22:32:03.655Z,10.20
2023-04-28T22:34:33.042Z,10.20
2023-04-28T22:37:02.451Z,10.20
2023-04-28T22:39:31.068Z,10.20
2023-04-28T22:41:59.785Z,10.20
2023-04-28T22:44:29.039Z,10.20
2023-04-28T22:46:58.151Z,10.10
2023-04-28T22:49:32.170Z,10.10
2023-04-28T22:52:00.233Z,10.10
2023-04-28T22:54:31.051Z,10.10
2023-04-28T22:57:00.111Z,10.10
2023-04-28T22:59:28.265Z,10.10
2023-04-28T23:01:58.497Z,10.00
2023-04-28T23:04:27.052Z,10.00
2023-04-28T23:06:59.113Z,10.00
2023-04-28T23:09:27.323Z,10.00
2023-04-28T23:11:57.070Z,9.90
2023-04-28T23:14:25.225Z,9.90
2023-04-28T23:16:54.094Z,9.90
2023-04-28T23:19:22.220Z,9.90
2023-04-28T23:21:50.708Z,9.90
2023-04-28T23:24:20.062Z,9.90
2023-04-28T23:26:48.139Z,9.90
2023-04-28T23:29:19.095Z,9.80
2023-04-28T23:31:52.317Z,9.80
2023-04-28T23:34:22.087Z,9.80
2023-04-28T23:36:50.323Z,9.80
2023-04-28T23:39:18.981Z,9.80
2023-04-28T23:41:48.105Z,9.80
2023-04-28T23:44:21.392Z,9.70
2023-04-28T23:46:51.115Z,9.70
2023-04-28T23:49:21.050Z,9.70
2023-04-28T23:51:50.559Z,9.70
2023-04-28T23:54:19.082Z,9.60
2023-04-28T23:56:47.316Z,9.60
2023-04-28T23:59:15.379Z,9.50
